Time;durP1;ratioP1;P1;durP2;ratioP2;P2;SDS_P1;SDS_P2;PMS_P1;PMS_P2;Temp;Humidity;BMP_temperature;BMP_pressure;BME280_temperature;BME280_humidity;BME280_pressure;Samples;Min_cycle;Max_cycle;Signal;HPM_P1;HPM_P2
2022/11/29 00:01:20;;;;;;;;;;;7.20;99.90;;;;;;5063787;28;19980;-79
2022/11/29 00:03:46;;;;;;;;;;;7.10;99.90;;;;;;5063119;28;20695;-78
2022/11/29 00:06:13;;;;;;;;;;;7.10;99.90;;;;;;5056412;28;19928;-81
2022/11/29 00:08:40;;;;;;;;;;;7.10;99.90;;;;;;5055999;28;19928;-78
2022/11/29 00:11:09;;;;;;;;;;;7.10;99.90;;;;;;5064228;28;19969;-77
2022/11/29 00:13:35;;;;;;;;;;;7.00;99.90;;;;;;5064691;28;19973;-79
2022/11/29 00:16:04;;;;;;;;;;;7.00;99.90;;;;;;5063997;28;19928;-78
2022/11/29 00:18:30;;;;;;;;;;;7.00;99.90;;;;;;5046046;28;19967;-78
2022/11/29 00:20:56;;;;;;;;;;;7.00;99.90;;;;;;5063654;28;21415;-79
2022/11/29 00:23:21;;;;;;;;;;;7.00;99.90;;;;;;5061381;28;19990;-81
2022/11/29 00:25:47;;;;;;;;;;;7.00;99.90;;;;;;5063206;28;19928;-78
2022/11/29 00:28:12;;;;;;;;;;;7.00;99.90;;;;;;5048609;28;19928;-78
2022/11/29 00:30:38;;;;;;;;;;;7.00;99.90;;;;;;5062337;28;20316;-78
2022/11/29 00:33:03;;;;;;;;;;;7.00;99.90;;;;;;5065806;28;19932;-78
2022/11/29 00:35:29;;;;;;;;;;;7.00;99.90;;;;;;5064280;28;19928;-79
2022/11/29 00:37:54;;;;;;;;;;;7.00;99.90;;;;;;5043598;28;19925;-78
2022/11/29 00:40:20;;;;;;;;;;;6.90;99.90;;;;;;5063224;28;19928;-78
2022/11/29 00:42:45;;;;;;;;;;;7.00;99.90;;;;;;5053045;28;19933;-81
2022/11/29 00:45:11;;;;;;;;;;;7.00;99.90;;;;;;5048118;28;19929;-78
2022/11/29 00:47:36;;;;;;;;;;;6.90;99.90;;;;;;5032180;28;20008;-78
2022/11/29 00:50:02;;;;;;;;;;;6.90;99.90;;;;;;5061748;28;19932;-80
2022/11/29 00:52:28;;;;;;;;;;;6.90;99.90;;;;;;5056634;28;20449;-78
2022/11/29 00:54:53;;;;;;;;;;;6.90;99.90;;;;;;5052284;28;19931;-78
2022/11/29 00:57:19;;;;;;;;;;;7.00;99.90;;;;;;5031505;28;20379;-77
2022/11/29 00:59:44;;;;;;;;;;;6.90;99.90;;;;;;5052425;28;19924;-78
2022/11/29 01:02:10;;;;;;;;;;;6.90;99.90;;;;;;5047467;28;19968;-78
2022/11/29 01:04:36;;;;;;;;;;;6.90;99.90;;;;;;5053447;28;19936;-78
2022/11/29 01:07:01;;;;;;;;;;;6.90;99.90;;;;;;5048950;28;20047;-78
2022/11/29 01:09:27;;;;;;;;;;;6.80;99.90;;;;;;5049343;28;19986;-78
2022/11/29 01:11:52;;;;;;;;;;;6.80;99.90;;;;;;5066543;28;19952;-79
2022/11/29 01:14:18;;;;;;;;;;;6.90;99.90;;;;;;5047194;28;19983;-81
2022/11/29 01:16:43;;;;;;;;;;;7.00;99.90;;;;;;5045200;28;19943;-82
2022/11/29 01:19:09;;;;;;;;;;;6.90;99.90;;;;;;5047041;28;19971;-78
2022/11/29 01:21:34;;;;;;;;;;;7.00;99.90;;;;;;5056231;28;19936;-78
2022/11/29 01:24:00;;;;;;;;;;;6.90;99.90;;;;;;5055696;28;20260;-77
2022/11/29 01:26:27;;;;;;;;;;;7.00;99.90;;;;;;5046699;28;20366;-78
2022/11/29 01:28:53;;;;;;;;;;;6.90;99.90;;;;;;5057438;28;20282;-79
2022/11/29 01:31:23;;;;;;;;;;;6.90;99.90;;;;;;5052574;28;20003;-80
2022/11/29 01:33:52;;;;;;;;;;;6.90;99.90;;;;;;5052848;28;19935;-78
2022/11/29 01:36:18;;;;;;;;;;;7.00;99.90;;;;;;5052790;28;20578;-78
2022/11/29 01:38:43;;;;;;;;;;;6.90;99.90;;;;;;5050304;28;19925;-80
2022/11/29 01:41:16;;;;;;;;;;;6.90;99.90;;;;;;5061598;28;20345;-79
2022/11/29 01:44:01;;;;;;;;;;;6.80;99.90;;;;;;5046495;28;20008;-78
2022/11/29 01:46:28;;;;;;;;;;;6.80;99.90;;;;;;5052603;28;20530;-77
2022/11/29 01:48:56;;;;;;;;;;;6.80;99.90;;;;;;5052510;28;19929;-79
2022/11/29 01:51:22;;;;;;;;;;;6.80;99.90;;;;;;5047003;28;20468;-79
2022/11/29 01:53:47;;;;;;;;;;;6.90;99.90;;;;;;5047693;28;20043;-80
2022/11/29 01:56:13;;;;;;;;;;;6.70;99.90;;;;;;5040427;28;19925;-80
2022/11/29 01:58:40;;;;;;;;;;;6.70;99.90;;;;;;5043055;28;19925;-78
2022/11/29 02:01:05;;;;;;;;;;;6.70;99.90;;;;;;5049601;28;20394;-78
2022/11/29 02:03:31;;;;;;;;;;;6.70;99.90;;;;;;5049146;28;19971;-78
2022/11/29 02:05:57;;;;;;;;;;;6.70;99.90;;;;;;5066981;28;19924;-77
2022/11/29 02:08:26;;;;;;;;;;;6.70;99.90;;;;;;5054617;28;19924;-79
2022/11/29 02:11:10;;;;;;;;;;;6.60;99.90;;;;;;5073569;28;20175;-80
2022/11/29 02:13:46;;;;;;;;;;;6.60;99.90;;;;;;5073000;28;19932;-77
2022/11/29 02:16:18;;;;;;;;;;;6.60;99.90;;;;;;5066022;28;20231;-79
2022/11/29 02:18:53;;;;;;;;;;;6.60;99.90;;;;;;5067783;28;19982;-78
2022/11/29 02:21:22;;;;;;;;;;;6.60;99.90;;;;;;5073581;28;19925;-78
2022/11/29 02:24:09;;;;;;;;;;;6.50;99.90;;;;;;5072297;28;20390;-78
2022/11/29 02:26:37;;;;;;;;;;;6.60;99.90;;;;;;5075242;28;19928;-78
2022/11/29 02:29:06;;;;;;;;;;;6.50;99.90;;;;;;5070875;28;19967;-78
2022/11/29 02:31:57;;;;;;;;;;;6.50;99.90;;;;;;5073410;28;20343;-78
2022/11/29 02:34:33;;;;;;;;;;;6.50;99.90;;;;;;5072180;28;19924;-78
2022/11/29 02:37:22;;;;;;;;;;;6.50;99.90;;;;;;5057657;28;19928;-77
2022/11/29 02:39:59;;;;;;;;;;;6.50;99.90;;;;;;5073403;28;19929;-77
2022/11/29 02:42:28;;;;;;;;;;;6.50;99.90;;;;;;5071942;28;20418;-77
2022/11/29 02:44:57;;;;;;;;;;;6.40;99.90;;;;;;5072719;28;20298;-78
2022/11/29 02:47:26;;;;;;;;;;;6.40;99.90;;;;;;5089489;28;19925;-78
2022/11/29 02:49:57;;;;;;;;;;;6.40;99.90;;;;;;5072974;28;19947;-78
2022/11/29 02:52:35;;;;;;;;;;;6.40;99.90;;;;;;5071671;28;19925;-77
2022/11/29 02:55:07;;;;;;;;;;;6.40;99.90;;;;;;5072759;28;19924;-81
2022/11/29 02:57:49;;;;;;;;;;;6.40;99.90;;;;;;5056971;28;19924;-78
2022/11/29 03:00:17;;;;;;;;;;;6.40;99.90;;;;;;5072754;28;19924;-79
2022/11/29 03:03:05;;;;;;;;;;;6.40;99.90;;;;;;5072243;28;19928;-78
2022/11/29 03:05:38;;;;;;;;;;;6.40;99.90;;;;;;5104492;28;20294;-78
2022/11/29 03:08:13;;;;;;;;;;;6.50;99.90;;;;;;5055939;28;19924;-77
2022/11/29 03:10:42;;;;;;;;;;;6.40;99.90;;;;;;5072412;28;20382;-78
2022/11/29 03:13:21;;;;;;;;;;;6.40;99.90;;;;;;5071989;28;19960;-78
2022/11/29 03:16:07;;;;;;;;;;;6.30;99.90;;;;;;5072122;28;20015;-78
2022/11/29 03:18:54;;;;;;;;;;;6.40;99.90;;;;;;5019289;28;20370;-77
2022/11/29 03:21:23;;;;;;;;;;;6.30;99.90;;;;;;5071807;28;20432;-79
2022/11/29 03:23:53;;;;;;;;;;;6.20;99.90;;;;;;5070475;28;19928;-79
2022/11/29 03:26:28;;;;;;;;;;;6.20;99.90;;;;;;5061786;28;19925;-78
2022/11/29 03:28:59;;;;;;;;;;;6.20;99.90;;;;;;5068235;28;20004;-78
2022/11/29 03:31:42;;;;;;;;;;;6.10;99.90;;;;;;5069045;28;19932;-79
2022/11/29 03:34:14;;;;;;;;;;;6.20;99.90;;;;;;5068452;28;20168;-80
2022/11/29 03:36:44;;;;;;;;;;;6.10;99.90;;;;;;5051858;28;19928;-77
2022/11/29 03:39:21;;;;;;;;;;;6.10;99.90;;;;;;5061692;28;19935;-78
2022/11/29 03:41:50;;;;;;;;;;;6.10;99.90;;;;;;5049977;28;19929;-78
2022/11/29 03:44:24;;;;;;;;;;;6.20;99.90;;;;;;5050323;28;19925;-77
2022/11/29 03:46:59;;;;;;;;;;;6.10;99.90;;;;;;5036808;28;19925;-78
2022/11/29 03:49:28;;;;;;;;;;;6.10;99.90;;;;;;5050867;28;19951;-78
2022/11/29 03:52:07;;;;;;;;;;;6.10;99.90;;;;;;5084996;28;19925;-77
2022/11/29 03:54:51;;;;;;;;;;;6.10;99.90;;;;;;5050189;28;19925;-79
2022/11/29 03:57:19;;;;;;;;;;;6.00;99.90;;;;;;5036090;28;19970;-78
2022/11/29 04:00:17;;;;;;;;;;;6.00;99.90;;;;;;5051792;28;19925;-82
2022/11/29 04:02:42;;;;;;;;;;;6.00;99.90;;;;;;5005768;28;19971;-78
2022/11/29 04:05:27;;;;;;;;;;;6.10;99.90;;;;;;5062357;28;19928;-79
2022/11/29 04:07:56;;;;;;;;;;;6.00;99.90;;;;;;5055395;28;19993;-78
2022/11/29 04:10:33;;;;;;;;;;;6.00;99.90;;;;;;5071761;28;20309;-78
2022/11/29 04:13:13;;;;;;;;;;;5.90;99.90;;;;;;5070389;28;19936;-78
2022/11/29 04:15:53;;;;;;;;;;;6.00;99.90;;;;;;5071821;28;20399;-80
2022/11/29 04:18:31;;;;;;;;;;;6.00;99.90;;;;;;5055312;28;19947;-78
2022/11/29 04:21:09;;;;;;;;;;;5.90;99.90;;;;;;5071583;28;19932;-77
2022/11/29 04:23:54;;;;;;;;;;;5.90;99.90;;;;;;5102692;28;19989;-77
2022/11/29 04:26:26;;;;;;;;;;;5.80;99.90;;;;;;5040917;28;19925;-77
2022/11/29 04:29:03;;;;;;;;;;;5.80;99.90;;;;;;5046977;28;19984;-78
2022/11/29 04:31:32;;;;;;;;;;;5.80;99.90;;;;;;5049458;28;19933;-78
2022/11/29 04:33:57;;;;;;;;;;;5.80;99.90;;;;;;5050239;28;19925;-78
2022/11/29 04:36:23;;;;;;;;;;;5.80;99.90;;;;;;5056135;28;19931;-78
2022/11/29 04:38:51;;;;;;;;;;;5.80;99.90;;;;;;5067450;28;19924;-78
2022/11/29 04:41:20;;;;;;;;;;;5.70;99.90;;;;;;5086822;28;19925;-78
2022/11/29 04:43:46;;;;;;;;;;;5.80;99.90;;;;;;5069677;28;19924;-78
2022/11/29 04:46:17;;;;;;;;;;;5.70;99.90;;;;;;5063182;28;19931;-78
2022/11/29 04:49:21;;;;;;;;;;;5.60;99.90;;;;;;5065376;28;19925;-77
2022/11/29 04:51:57;;;;;;;;;;;5.60;99.90;;;;;;5028201;28;19975;-78
2022/11/29 04:54:38;;;;;;;;;;;5.60;99.90;;;;;;5027418;28;20457;-77
2022/11/29 04:57:22;;;;;;;;;;;5.60;99.90;;;;;;5026160;28;19947;-74
2022/11/29 04:59:52;;;;;;;;;;;5.50;99.90;;;;;;5050915;28;19982;-78
2022/11/29 05:02:33;;;;;;;;;;;5.50;99.90;;;;;;5082009;28;19936;-84
2022/11/29 05:05:18;;;;;;;;;;;5.50;99.90;;;;;;5059949;28;19925;-77
2022/11/29 05:08:02;;;;;;;;;;;5.50;99.90;;;;;;5054484;28;20023;-78
2022/11/29 05:10:32;;;;;;;;;;;5.50;99.90;;;;;;5068668;28;19928;-80
2022/11/29 05:13:07;;;;;;;;;;;5.50;99.90;;;;;;5066814;28;19951;-78
2022/11/29 05:15:51;;;;;;;;;;;5.60;99.90;;;;;;5062839;28;19983;-77
2022/11/29 05:18:35;;;;;;;;;;;5.60;99.90;;;;;;5048657;28;20019;-78
2022/11/29 05:21:07;;;;;;;;;;;5.60;99.90;;;;;;5066694;28;19928;-78
2022/11/29 05:23:51;;;;;;;;;;;5.70;99.90;;;;;;5057482;28;19955;-77
2022/11/29 05:26:21;;;;;;;;;;;5.60;99.90;;;;;;5036936;28;20011;-81
2022/11/29 05:28:52;;;;;;;;;;;5.60;99.90;;;;;;5056156;28;19928;-77
2022/11/29 05:31:18;;;;;;;;;;;5.60;99.90;;;;;;5047320;28;19944;-79
2022/11/29 05:33:43;;;;;;;;;;;5.60;99.90;;;;;;5045162;28;19932;-79
2022/11/29 05:36:18;;;;;;;;;;;5.60;99.90;;;;;;5052713;28;19928;-79
2022/11/29 05:38:44;;;;;;;;;;;5.70;99.90;;;;;;5043096;28;19929;-78
2022/11/29 05:41:28;;;;;;;;;;;5.70;99.90;;;;;;5047013;28;19955;-78
2022/11/29 05:43:54;;;;;;;;;;;5.70;99.90;;;;;;5045677;28;19974;-78
2022/11/29 05:46:38;;;;;;;;;;;5.70;99.90;;;;;;5050513;28;19924;-78
2022/11/29 05:49:04;;;;;;;;;;;5.70;99.90;;;;;;5044758;28;20016;-78
2022/11/29 05:51:32;;;;;;;;;;;5.60;99.90;;;;;;5048187;28;20016;-78
2022/11/29 05:54:02;;;;;;;;;;;5.40;99.90;;;;;;5061365;28;20512;-80
2022/11/29 05:56:51;;;;;;;;;;;5.30;99.90;;;;;;5053735;28;20810;-78
2022/11/29 05:59:19;;;;;;;;;;;5.30;99.90;;;;;;5045750;28;19928;-78
2022/11/29 06:01:45;;;;;;;;;;;5.30;99.90;;;;;;5047120;28;20287;-78
2022/11/29 06:04:15;;;;;;;;;;;5.30;99.90;;;;;;5048533;28;19939;-78
2022/11/29 06:06:48;;;;;;;;;;;5.30;99.90;;;;;;5040010;28;19929;-77
2022/11/29 06:09:16;;;;;;;;;;;5.20;99.90;;;;;;5048380;28;19999;-82
2022/11/29 06:11:47;;;;;;;;;;;5.30;99.90;;;;;;5054574;28;20043;-78
2022/11/29 06:14:32;;;;;;;;;;;5.20;99.90;;;;;;5045909;28;20363;-78
2022/11/29 06:17:17;;;;;;;;;;;5.20;99.90;;;;;;5032190;28;19940;-78
2022/11/29 06:19:42;;;;;;;;;;;5.20;99.90;;;;;;5056583;28;20408;-78
2022/11/29 06:22:26;;;;;;;;;;;5.20;99.90;;;;;;5049151;28;20204;-78
2022/11/29 06:25:10;;;;;;;;;;;5.20;99.90;;;;;;5079327;28;20290;-78
2022/11/29 06:27:46;;;;;;;;;;;5.20;99.90;;;;;;5034130;28;20275;-79
2022/11/29 06:30:13;;;;;;;;;;;5.20;99.90;;;;;;5046794;28;19982;-82
2022/11/29 06:33:00;;;;;;;;;;;5.30;99.90;;;;;;5045686;28;20349;-78
2022/11/29 06:35:34;;;;;;;;;;;5.40;99.90;;;;;;5055920;28;19959;-80
2022/11/29 06:38:03;;;;;;;;;;;5.40;99.90;;;;;;5043626;28;20023;-78
2022/11/29 06:40:28;;;;;;;;;;;5.40;99.90;;;;;;5046850;28;19937;-78
2022/11/29 06:42:54;;;;;;;;;;;5.50;99.90;;;;;;5045552;28;20146;-77
2022/11/29 06:45:20;;;;;;;;;;;5.50;99.90;;;;;;5073847;28;20383;-79
2022/11/29 06:47:57;;;;;;;;;;;5.60;99.90;;;;;;5032280;28;19936;-78
2022/11/29 06:50:30;;;;;;;;;;;5.60;99.90;;;;;;5048997;28;20017;-83
2022/11/29 06:52:57;;;;;;;;;;;5.60;99.90;;;;;;5058249;28;20015;-78
2022/11/29 06:55:38;;;;;;;;;;;5.70;99.90;;;;;;5054173;28;20009;-78
2022/11/29 06:58:13;;;;;;;;;;;5.70;99.90;;;;;;5051135;28;19929;-78
2022/11/29 07:00:44;;;;;;;;;;;5.80;99.90;;;;;;5057887;28;19928;-78
2022/11/29 07:03:29;;;;;;;;;;;5.80;99.90;;;;;;5065223;28;19959;-79
2022/11/29 07:05:55;;;;;;;;;;;5.90;99.90;;;;;;5065239;28;19928;-79
2022/11/29 07:08:22;;;;;;;;;;;5.90;99.90;;;;;;5052436;28;20015;-78
2022/11/29 07:10:49;;;;;;;;;;;6.00;99.90;;;;;;5062817;28;19933;-78
2022/11/29 07:13:15;;;;;;;;;;;6.10;99.90;;;;;;5056931;28;19925;-78
2022/11/29 07:15:53;;;;;;;;;;;6.10;99.90;;;;;;5051088;28;19979;-79
2022/11/29 07:18:28;;;;;;;;;;;6.10;99.90;;;;;;5048417;28;19928;-79
2022/11/29 07:21:12;;;;;;;;;;;6.20;99.90;;;;;;5065799;28;19936;-81
2022/11/29 07:23:44;;;;;;;;;;;6.20;99.90;;;;;;5064471;28;19936;-78
2022/11/29 07:26:15;;;;;;;;;;;6.20;99.90;;;;;;5088527;28;20389;-82
2022/11/29 07:29:03;;;;;;;;;;;6.20;99.90;;;;;;5064299;28;20348;-78
2022/11/29 07:31:41;;;;;;;;;;;6.30;99.90;;;;;;5069428;28;19974;-78
2022/11/29 07:34:27;;;;;;;;;;;6.30;99.90;;;;;;5065692;28;19929;-79
2022/11/29 07:36:59;;;;;;;;;;;6.30;99.90;;;;;;5054556;28;19974;-79
2022/11/29 07:39:28;;;;;;;;;;;6.20;99.90;;;;;;5069781;28;19940;-79
2022/11/29 07:41:59;;;;;;;;;;;6.20;99.90;;;;;;5071568;28;19920;-80
2022/11/29 07:44:25;;;;;;;;;;;6.20;99.90;;;;;;5068757;28;19924;-78
2022/11/29 07:46:50;;;;;;;;;;;6.20;99.90;;;;;;5056738;28;20460;-78
2022/11/29 07:49:16;;;;;;;;;;;6.20;99.90;;;;;;5070588;28;19920;-78
2022/11/29 07:51:41;;;;;;;;;;;6.10;99.90;;;;;;5071815;28;19920;-78
2022/11/29 07:54:08;;;;;;;;;;;6.00;99.90;;;;;;5069396;28;19989;-78
2022/11/29 07:56:34;;;;;;;;;;;5.90;99.90;;;;;;5057478;28;19920;-78
2022/11/29 07:58:59;;;;;;;;;;;5.80;99.90;;;;;;5068930;28;19981;-78
2022/11/29 08:01:25;;;;;;;;;;;5.90;99.90;;;;;;5060383;28;19932;-78
2022/11/29 08:03:50;;;;;;;;;;;5.90;99.90;;;;;;5069268;28;20278;-78
2022/11/29 08:06:21;;;;;;;;;;;5.90;99.90;;;;;;5069416;28;19920;-78
2022/11/29 08:08:47;;;;;;;;;;;5.90;99.90;;;;;;5067350;28;20377;-78
2022/11/29 08:11:13;;;;;;;;;;;5.90;99.90;;;;;;5071218;28;20015;-78
2022/11/29 08:13:38;;;;;;;;;;;6.00;99.90;;;;;;5068883;28;20155;-78
2022/11/29 08:16:04;;;;;;;;;;;6.00;99.90;;;;;;5073892;28;20067;-78
2022/11/29 08:18:29;;;;;;;;;;;6.20;99.90;;;;;;5054870;28;19927;-78
2022/11/29 08:20:55;;;;;;;;;;;6.20;99.90;;;;;;5069338;28;20007;-79
2022/11/29 08:23:21;;;;;;;;;;;6.20;99.90;;;;;;5068873;28;19925;-78
2022/11/29 08:25:47;;;;;;;;;;;6.30;99.90;;;;;;5069701;28;20455;-78
2022/11/29 08:28:13;;;;;;;;;;;6.30;99.90;;;;;;5044378;28;20161;-80
2022/11/29 08:30:38;;;;;;;;;;;6.30;99.90;;;;;;5059833;28;20038;-78
2022/11/29 08:33:04;;;;;;;;;;;6.40;99.90;;;;;;5059654;28;20290;-79
2022/11/29 08:35:30;;;;;;;;;;;6.30;99.90;;;;;;5059583;28;20292;-78
2022/11/29 08:37:55;;;;;;;;;;;6.40;99.90;;;;;;5044397;28;19933;-78
2022/11/29 08:40:21;;;;;;;;;;;6.40;99.90;;;;;;5059505;28;19931;-79
2022/11/29 08:42:47;;;;;;;;;;;6.40;99.90;;;;;;5058044;28;19924;-79
2022/11/29 08:45:12;;;;;;;;;;;6.60;99.90;;;;;;5059665;28;19940;-79
2022/11/29 08:47:39;;;;;;;;;;;6.40;99.90;;;;;;5043108;28;19932;-82
2022/11/29 08:50:13;;;;;;;;;;;6.50;99.90;;;;;;5059075;28;19940;-79
2022/11/29 08:55:25;;;;;;;;;;;6.40;99.90;;;;;;5059606;28;19959;-81
2022/11/29 08:57:52;;;;;;;;;;;6.60;99.90;;;;;;5042372;28;19933;-82
2022/11/29 09:00:20;;;;;;;;;;;6.50;99.90;;;;;;5059123;28;19978;-79
2022/11/29 09:02:46;;;;;;;;;;;6.50;99.90;;;;;;5057630;28;19924;-80
2022/11/29 09:05:11;;;;;;;;;;;6.60;99.90;;;;;;5058045;28;19940;-78
2022/11/29 09:07:37;;;;;;;;;;;6.60;99.90;;;;;;5043461;28;19939;-78
2022/11/29 09:10:06;;;;;;;;;;;6.50;99.90;;;;;;5057720;28;19943;-79
2022/11/29 09:12:33;;;;;;;;;;;6.60;99.90;;;;;;5058013;28;20362;-80
2022/11/29 09:14:58;;;;;;;;;;;6.70;99.90;;;;;;5053437;28;20374;-78
2022/11/29 09:17:24;;;;;;;;;;;6.70;99.90;;;;;;5041081;28;19932;-80
2022/11/29 09:19:49;;;;;;;;;;;6.70;99.90;;;;;;5057786;28;19927;-78
2022/11/29 09:22:15;;;;;;;;;;;6.70;99.90;;;;;;5056785;28;20007;-80
2022/11/29 09:24:40;;;;;;;;;;;6.70;99.90;;;;;;5056275;28;19974;-82
2022/11/29 09:27:06;;;;;;;;;;;6.80;99.90;;;;;;5041956;28;19939;-79
2022/11/29 09:29:32;;;;;;;;;;;6.90;99.90;;;;;;5055702;28;19939;-79
2022/11/29 09:31:57;;;;;;;;;;;7.00;99.90;;;;;;5056392;28;20146;-83
2022/11/29 09:34:23;;;;;;;;;;;7.10;99.90;;;;;;5056940;28;20036;-78
2022/11/29 09:36:48;;;;;;;;;;;7.20;99.90;;;;;;5041236;28;20028;-80
2022/11/29 09:39:14;;;;;;;;;;;7.20;99.90;;;;;;5056874;28;20019;-80
2022/11/29 09:41:52;;;;;;;;;;;7.30;99.90;;;;;;5057432;28;20023;-78
2022/11/29 09:44:36;;;;;;;;;;;7.40;99.90;;;;;;5052275;28;19932;-82
2022/11/29 09:47:04;;;;;;;;;;;7.40;99.90;;;;;;5041374;28;20496;-79
2022/11/29 09:49:33;;;;;;;;;;;7.50;99.90;;;;;;5056619;28;19927;-78
2022/11/29 09:52:17;;;;;;;;;;;7.60;99.90;;;;;;5057816;28;20429;-79
2022/11/29 09:54:49;;;;;;;;;;;7.60;99.90;;;;;;5057233;28;19937;-81
2022/11/29 09:57:16;;;;;;;;;;;7.80;99.90;;;;;;5041584;28;19931;-80
2022/11/29 09:59:53;;;;;;;;;;;7.80;99.90;;;;;;5056836;28;19997;-81
2022/11/29 10:02:44;;;;;;;;;;;7.90;99.90;;;;;;5054392;28;19935;-78
2022/11/29 10:05:16;;;;;;;;;;;8.00;99.90;;;;;;5057353;28;19932;-80
2022/11/29 10:07:46;;;;;;;;;;;8.10;99.90;;;;;;5039824;28;19955;-81
2022/11/29 10:10:18;;;;;;;;;;;8.10;99.90;;;;;;5057251;28;19939;-81
2022/11/29 10:12:47;;;;;;;;;;;8.20;99.90;;;;;;5055374;28;20354;-78
2022/11/29 10:15:18;;;;;;;;;;;8.30;99.90;;;;;;5064266;28;19932;-79
2022/11/29 10:17:48;;;;;;;;;;;8.30;99.90;;;;;;5049691;28;20019;-78
2022/11/29 10:20:16;;;;;;;;;;;8.50;99.90;;;;;;5055711;28;20351;-80
2022/11/29 10:22:44;;;;;;;;;;;8.60;99.90;;;;;;5056421;28;19920;-82
2022/11/29 10:25:16;;;;;;;;;;;8.50;99.90;;;;;;5056772;28;20340;-81
2022/11/29 10:27:42;;;;;;;;;;;8.60;99.90;;;;;;5040550;28;19927;-79
2022/11/29 10:30:11;;;;;;;;;;;8.70;99.90;;;;;;5060071;28;19932;-79
2022/11/29 10:32:37;;;;;;;;;;;8.70;99.90;;;;;;5059790;28;19939;-79
2022/11/29 10:35:04;;;;;;;;;;;8.80;99.90;;;;;;5061055;28;19924;-78
2022/11/29 10:37:31;;;;;;;;;;;8.90;99.90;;;;;;5044663;28;20270;-82
2022/11/29 10:40:03;;;;;;;;;;;8.90;99.90;;;;;;5059533;28;19924;-80
2022/11/29 10:45:12;;;;;;;;;;;8.90;99.90;;;;;;5060767;28;19954;-78
2022/11/29 10:47:38;;;;;;;;;;;8.90;99.90;;;;;;5042787;28;20808;-83
2022/11/29 10:50:04;;;;;;;;;;;9.00;99.90;;;;;;5060053;28;19932;-83
2022/11/29 10:52:29;;;;;;;;;;;9.10;99.90;;;;;;5058938;28;19920;-78
2022/11/29 10:54:57;;;;;;;;;;;9.10;99.90;;;;;;5060682;28;19921;-80
2022/11/29 10:57:22;;;;;;;;;;;9.10;99.90;;;;;;5043305;28;19954;-83
2022/11/29 11:00:03;;;;;;;;;;;9.20;99.90;;;;;;5058900;28;20350;-83
2022/11/29 11:02:29;;;;;;;;;;;9.20;99.90;;;;;;5058245;28;19928;-77
2022/11/29 11:04:55;;;;;;;;;;;9.30;99.90;;;;;;5059422;28;19952;-81
2022/11/29 11:07:23;;;;;;;;;;;9.40;99.90;;;;;;5044034;28;20020;-79
2022/11/29 11:09:50;;;;;;;;;;;9.40;99.90;;;;;;5058375;28;19939;-80
2022/11/29 11:12:20;;;;;;;;;;;9.40;99.90;;;;;;5059122;28;19921;-79
2022/11/29 11:14:46;;;;;;;;;;;9.40;99.90;;;;;;5059790;28;19921;-79
2022/11/29 11:17:15;;;;;;;;;;;9.40;99.90;;;;;;5040028;28;19936;-82
2022/11/29 11:19:40;;;;;;;;;;;9.40;99.90;;;;;;5057776;28;19978;-82
2022/11/29 11:22:17;;;;;;;;;;;9.30;99.90;;;;;;5059416;28;20019;-78
2022/11/29 11:24:43;;;;;;;;;;;9.50;99.90;;;;;;5059353;28;19932;-80
2022/11/29 11:27:09;;;;;;;;;;;9.50;99.90;;;;;;5044049;28;20374;-78
2022/11/29 11:29:39;;;;;;;;;;;9.50;99.90;;;;;;5058037;28;19975;-81
2022/11/29 11:32:16;;;;;;;;;;;9.50;99.90;;;;;;5058784;28;19932;-81
2022/11/29 11:34:55;;;;;;;;;;;9.50;99.90;;;;;;5057141;28;20309;-82
2022/11/29 11:37:25;;;;;;;;;;;9.40;99.90;;;;;;5043927;28;19925;-77
2022/11/29 11:39:52;;;;;;;;;;;9.40;99.90;;;;;;5058004;28;20023;-79
2022/11/29 11:42:35;;;;;;;;;;;9.30;99.90;;;;;;5056626;28;20019;-79
2022/11/29 11:45:03;;;;;;;;;;;9.40;99.90;;;;;;5057346;28;20481;-80
2022/11/29 11:47:29;;;;;;;;;;;9.30;99.90;;;;;;5042515;28;20289;-80
2022/11/29 11:50:01;;;;;;;;;;;9.30;99.90;;;;;;5062516;28;19920;-78
2022/11/29 11:52:29;;;;;;;;;;;9.30;99.90;;;;;;5066753;28;20549;-80
2022/11/29 11:54:59;;;;;;;;;;;9.30;99.90;;;;;;5068419;28;19924;-78
2022/11/29 11:57:26;;;;;;;;;;;9.30;99.90;;;;;;5054151;28;21248;-83
2022/11/29 11:59:53;;;;;;;;;;;9.40;99.90;;;;;;5070498;28;20347;-78
2022/11/29 12:02:37;;;;;;;;;;;9.30;99.90;;;;;;5069408;28;19925;-78
2022/11/29 12:05:11;;;;;;;;;;;9.40;99.90;;;;;;5070490;28;19927;-84
2022/11/29 12:07:43;;;;;;;;;;;9.30;99.90;;;;;;5054035;28;19920;-78
2022/11/29 12:10:21;;;;;;;;;;;9.40;99.90;;;;;;5065763;28;20286;-79
2022/11/29 12:12:48;;;;;;;;;;;9.30;99.90;;;;;;5064434;28;19978;-78
2022/11/29 12:15:18;;;;;;;;;;;9.30;99.90;;;;;;5066864;28;19985;-78
2022/11/29 12:17:50;;;;;;;;;;;9.20;99.90;;;;;;5049566;28;19928;-78
2022/11/29 12:20:18;;;;;;;;;;;9.20;99.90;;;;;;5066972;28;19939;-81
2022/11/29 12:22:49;;;;;;;;;;;9.10;99.90;;;;;;5065080;28;19973;-81
2022/11/29 12:25:21;;;;;;;;;;;9.10;99.90;;;;;;5063445;28;19920;-78
2022/11/29 12:27:50;;;;;;;;;;;9.00;99.90;;;;;;5049940;28;19942;-79
2022/11/29 12:30:16;;;;;;;;;;;9.00;99.90;;;;;;5064403;28;20397;-79
2022/11/29 12:32:52;;;;;;;;;;;8.90;99.90;;;;;;5063347;28;19999;-78
2022/11/29 12:35:35;;;;;;;;;;;8.90;99.90;;;;;;5061630;28;20013;-79
2022/11/29 12:38:17;;;;;;;;;;;8.80;99.90;;;;;;5043237;28;20692;-79
2022/11/29 12:40:48;;;;;;;;;;;8.80;99.90;;;;;;5051416;28;20221;-83
2022/11/29 12:43:32;;;;;;;;;;;8.80;99.90;;;;;;5047863;28;20389;-82
2022/11/29 12:46:05;;;;;;;;;;;8.80;99.90;;;;;;5046986;28;19968;-81
2022/11/29 12:48:31;;;;;;;;;;;8.70;99.90;;;;;;5029202;28;20023;-84
2022/11/29 12:51:00;;;;;;;;;;;8.80;99.90;;;;;;5046070;28;20384;-78
2022/11/29 12:53:52;;;;;;;;;;;8.70;99.90;;;;;;5044184;28;19936;-78
2022/11/29 12:56:24;;;;;;;;;;;8.70;99.90;;;;;;5034922;28;19932;-81
2022/11/29 12:59:10;;;;;;;;;;;8.70;99.90;;;;;;5039359;28;20533;-79
2022/11/29 13:01:36;;;;;;;;;;;8.70;99.90;;;;;;5044412;28;19920;-78
2022/11/29 13:04:04;;;;;;;;;;;8.70;99.90;;;;;;5044566;28;20255;-81
2022/11/29 13:06:53;;;;;;;;;;;8.70;99.90;;;;;;5029498;28;19932;-84
2022/11/29 13:09:28;;;;;;;;;;;8.70;99.90;;;;;;5047234;28;19924;-78
2022/11/29 13:11:57;;;;;;;;;;;8.60;99.90;;;;;;5049728;28;21129;-78
2022/11/29 13:14:31;;;;;;;;;;;8.60;99.90;;;;;;5050722;28;19924;-80
2022/11/29 13:16:59;;;;;;;;;;;8.50;99.90;;;;;;5035616;28;20023;-80
2022/11/29 13:19:33;;;;;;;;;;;8.50;99.90;;;;;;5049273;28;19920;-79
2022/11/29 13:22:07;;;;;;;;;;;8.40;99.90;;;;;;5049446;28;19928;-80
2022/11/29 13:24:59;;;;;;;;;;;8.40;99.90;;;;;;5049151;28;20404;-81
2022/11/29 13:27:27;;;;;;;;;;;8.30;99.90;;;;;;5013127;28;19924;-79
2022/11/29 13:29:53;;;;;;;;;;;8.30;99.90;;;;;;5050384;28;19951;-84
2022/11/29 13:32:28;;;;;;;;;;;8.20;99.90;;;;;;5048467;28;19939;-81
2022/11/29 13:34:57;;;;;;;;;;;8.20;99.90;;;;;;5049922;28;20031;-80
2022/11/29 13:37:27;;;;;;;;;;;8.10;99.90;;;;;;5034003;28;19933;-81
2022/11/29 13:39:57;;;;;;;;;;;8.10;99.90;;;;;;5050391;28;20302;-81
2022/11/29 13:42:41;;;;;;;;;;;8.10;99.90;;;;;;5048502;28;21166;-79
2022/11/29 13:45:20;;;;;;;;;;;8.10;99.90;;;;;;5049447;28;19936;-80
2022/11/29 13:47:50;;;;;;;;;;;8.10;99.90;;;;;;5032264;28;20335;-79
2022/11/29 13:50:21;;;;;;;;;;;8.00;99.90;;;;;;5049920;28;19933;-81
2022/11/29 13:52:47;;;;;;;;;;;8.00;99.90;;;;;;5047828;28;20034;-80
2022/11/29 13:55:22;;;;;;;;;;;8.10;99.90;;;;;;5049948;28;20004;-78
2022/11/29 13:58:00;;;;;;;;;;;8.00;99.90;;;;;;5032204;28;21516;-81
2022/11/29 14:00:27;;;;;;;;;;;8.10;99.90;;;;;;5048454;28;20276;-81
2022/11/29 14:02:56;;;;;;;;;;;8.00;99.90;;;;;;5048127;28;19964;-79
2022/11/29 14:05:26;;;;;;;;;;;8.10;99.90;;;;;;5053190;28;19940;-82
2022/11/29 14:08:10;;;;;;;;;;;8.10;99.90;;;;;;5036997;28;20015;-80
2022/11/29 14:10:36;;;;;;;;;;;8.10;99.90;;;;;;5053633;28;20310;-79
2022/11/29 14:13:03;;;;;;;;;;;8.00;99.90;;;;;;5053075;28;20414;-83
2022/11/29 14:15:31;;;;;;;;;;;8.00;99.90;;;;;;5051263;28;19946;-78
2022/11/29 14:17:58;;;;;;;;;;;8.00;99.90;;;;;;5037101;28;19939;-81
2022/11/29 14:20:27;;;;;;;;;;;8.00;99.90;;;;;;5053350;28;20375;-81
2022/11/29 14:23:05;;;;;;;;;;;8.00;99.90;;;;;;5052177;28;19939;-83
2022/11/29 14:25:30;;;;;;;;;;;8.00;99.90;;;;;;5052731;28;19920;-84
2022/11/29 14:27:58;;;;;;;;;;;8.00;99.90;;;;;;5068513;28;20393;-78
2022/11/29 14:30:27;;;;;;;;;;;8.00;99.90;;;;;;5053103;28;19928;-78
2022/11/29 14:32:57;;;;;;;;;;;8.00;99.90;;;;;;5052207;28;20145;-79
2022/11/29 14:35:29;;;;;;;;;;;8.00;99.90;;;;;;5052892;28;20373;-77
2022/11/29 14:38:03;;;;;;;;;;;7.90;99.90;;;;;;5035988;28;19932;-77
2022/11/29 14:40:41;;;;;;;;;;;7.90;99.90;;;;;;5053348;28;19932;-80
2022/11/29 14:43:25;;;;;;;;;;;7.80;99.90;;;;;;5051999;28;20366;-78
2022/11/29 14:46:07;;;;;;;;;;;7.80;99.90;;;;;;5052973;28;19936;-79
2022/11/29 14:48:33;;;;;;;;;;;7.80;99.90;;;;;;5040345;28;20054;-79
2022/11/29 14:51:14;;;;;;;;;;;7.80;99.90;;;;;;5052691;28;20017;-78
2022/11/29 14:53:40;;;;;;;;;;;7.70;99.90;;;;;;5051632;28;19940;-81
2022/11/29 14:56:25;;;;;;;;;;;7.70;99.90;;;;;;5050270;28;20364;-83
2022/11/29 14:59:09;;;;;;;;;;;7.70;99.90;;;;;;5048645;28;19921;-79
2022/11/29 15:01:36;;;;;;;;;;;7.70;99.90;;;;;;5052506;28;19939;-79